Time;durP1;ratioP1;P1;durP2;ratioP2;P2;SDS_P1;SDS_P2;PMS_P1;PMS_P2;Temp;Humidity;BMP_temperature;BMP_pressure;BME280_temperature;BME280_humidity;BME280_pressure;Samples;Min_cycle;Max_cycle;Signal;HPM_P1;HPM_P2
2022/04/04 00:00:52;;;;;;;;;17.00;13.75;;;;;;;;5048052;28;45410;-70
2022/04/04 00:03:17;;;;;;;;;14.25;13.50;;;;;;;;5048009;28;45399;-75
2022/04/04 00:05:42;;;;;;;;;15.25;13.00;;;;;;;;5047373;28;45489;-76
2022/04/04 00:08:08;;;;;;;;;17.00;14.00;;;;;;;;5050698;28;45498;-81
2022/04/04 00:10:34;;;;;;;;;14.00;13.00;;;;;;;;5047114;28;45802;-80
2022/04/04 00:12:59;;;;;;;;;13.25;12.00;;;;;;;;5047791;28;45384;-69
2022/04/04 00:15:25;;;;;;;;;14.25;13.00;;;;;;;;5048926;28;45461;-77
2022/04/04 00:17:50;;;;;;;;;17.25;13.75;;;;;;;;5048156;28;45445;-76
2022/04/04 00:20:16;;;;;;;;;15.50;13.50;;;;;;;;5050673;28;45528;-80
2022/04/04 00:22:42;;;;;;;;;20.00;14.00;;;;;;;;5047352;28;45365;-77
2022/04/04 00:25:08;;;;;;;;;12.00;9.25;;;;;;;;5049706;28;45621;-81
2022/04/04 00:27:33;;;;;;;;;16.00;14.00;;;;;;;;5046183;28;45378;-81
2022/04/04 00:29:58;;;;;;;;;16.25;13.00;;;;;;;;5046944;28;45423;-80
2022/04/04 00:32:24;;;;;;;;;13.00;12.00;;;;;;;;5048010;28;45387;-76
2022/04/04 00:34:49;;;;;;;;;13.00;12.00;;;;;;;;5048280;28;46160;-69
2022/04/04 00:37:14;;;;;;;;;10.25;9.50;;;;;;;;5053357;28;45458;-78
2022/04/04 00:39:40;;;;;;;;;17.25;13.75;;;;;;;;5048464;28;45557;-70
2022/04/04 00:42:06;;;;;;;;;13.75;13.00;;;;;;;;5047672;28;45647;-70
2022/04/04 00:44:32;;;;;;;;;17.00;13.00;;;;;;;;5043484;28;45909;-71
2022/04/04 00:46:57;;;;;;;;;18.75;16.00;;;;;;;;5056170;28;45528;-75
2022/04/04 00:49:23;;;;;;;;;13.00;11.75;;;;;;;;5049512;28;45902;-70
2022/04/04 00:51:48;;;;;;;;;15.50;13.75;;;;;;;;5050434;28;45490;-69
2022/04/04 00:54:14;;;;;;;;;15.25;12.50;;;;;;;;5052071;28;46190;-81
2022/04/04 00:56:39;;;;;;;;;13.00;13.00;;;;;;;;5048905;28;45486;-69
2022/04/04 00:59:05;;;;;;;;;15.75;14.75;;;;;;;;5048804;28;46040;-75
2022/04/04 01:01:31;;;;;;;;;11.00;9.25;;;;;;;;5056570;28;45493;-73
2022/04/04 01:03:56;;;;;;;;;12.75;11.75;;;;;;;;5045210;28;46304;-70
2022/04/04 01:06:22;;;;;;;;;13.25;12.75;;;;;;;;5048487;28;45524;-69
2022/04/04 01:08:47;;;;;;;;;15.25;12.00;;;;;;;;5043560;28;45753;-69
2022/04/04 01:11:12;;;;;;;;;16.25;15.00;;;;;;;;5041523;28;45373;-70
2022/04/04 01:13:44;;;;;;;;;17.50;15.25;;;;;;;;5039079;28;46747;-70
2022/04/04 01:16:10;;;;;;;;;13.50;12.75;;;;;;;;5041608;28;45703;-70
2022/04/04 01:18:35;;;;;;;;;16.00;14.75;;;;;;;;5044972;28;46124;-71
2022/04/04 01:21:00;;;;;;;;;14.75;12.00;;;;;;;;5041835;28;45422;-72
2022/04/04 01:23:29;;;;;;;;;15.50;13.25;;;;;;;;5041620;28;46720;-70
2022/04/04 01:25:55;;;;;;;;;13.25;11.25;;;;;;;;5042543;28;45480;-70
2022/04/04 01:28:20;;;;;;;;;15.50;13.00;;;;;;;;5039271;28;45312;-80
2022/04/04 01:30:51;;;;;;;;;15.00;12.75;;;;;;;;5041836;28;45452;-69
2022/04/04 01:33:16;;;;;;;;;14.75;12.00;;;;;;;;5041442;28;46197;-69
2022/04/04 01:35:42;;;;;;;;;15.25;13.50;;;;;;;;5039655;28;45382;-70
2022/04/04 01:38:07;;;;;;;;;18.75;14.75;;;;;;;;5039699;28;45624;-80
2022/04/04 01:40:32;;;;;;;;;17.50;15.00;;;;;;;;5041752;28;45484;-71
2022/04/04 01:42:58;;;;;;;;;13.75;13.25;;;;;;;;5041014;28;45568;-79
2022/04/04 01:48:08;;;;;;;;;15.25;13.75;;;;;;;;5044730;28;45568;-69
2022/04/04 01:50:34;;;;;;;;;15.50;13.50;;;;;;;;5047566;28;45290;-69
2022/04/04 01:53:25;;;;;;;;;14.75;13.25;;;;;;;;5039475;28;45379;-79
2022/04/04 01:55:44;;;;;;;;;16.75;14.00;;;;;;;;5040525;28;45580;-79
2022/04/04 01:58:10;;;;;;;;;15.50;14.25;;;;;;;;5042613;28;45347;-69
2022/04/04 02:00:35;;;;;;;;;19.25;13.50;;;;;;;;5039965;28;45526;-80
2022/04/04 02:03:01;;;;;;;;;15.00;12.00;;;;;;;;5040857;28;45452;-70
2022/04/04 02:05:26;;;;;;;;;9.50;8.50;;;;;;;;5042327;28;45485;-76
2022/04/04 02:07:52;;;;;;;;;14.75;12.25;;;;;;;;5038706;28;45408;-70
2022/04/04 02:10:17;;;;;;;;;19.00;15.25;;;;;;;;5041194;28;45367;-72
2022/04/04 02:12:42;;;;;;;;;11.50;11.00;;;;;;;;5040687;28;45598;-70
2022/04/04 02:15:08;;;;;;;;;18.00;14.50;;;;;;;;5040591;28;46118;-80
2022/04/04 02:17:33;;;;;;;;;32.00;30.00;;;;;;;;5040100;28;45553;-69
2022/04/04 02:19:58;;;;;;;;;25.25;25.25;;;;;;;;5043222;28;45445;-69
2022/04/04 02:22:24;;;;;;;;;18.50;15.25;;;;;;;;5042260;28;45373;-69
2022/04/04 02:24:49;;;;;;;;;27.25;21.75;;;;;;;;5040594;28;45433;-70
2022/04/04 02:27:14;;;;;;;;;18.50;17.00;;;;;;;;5040237;28;45544;-69
2022/04/04 02:29:40;;;;;;;;;18.00;15.25;;;;;;;;5041344;28;45627;-70
2022/04/04 02:32:06;;;;;;;;;28.50;25.50;;;;;;;;5037093;28;46711;-79
2022/04/04 02:34:31;;;;;;;;;19.50;18.25;;;;;;;;5039637;28;45545;-70
2022/04/04 02:36:56;;;;;;;;;30.25;26.75;;;;;;;;5040356;28;45540;-69
2022/04/04 02:39:22;;;;;;;;;21.75;15.75;;;;;;;;5050584;28;45553;-76
2022/04/04 02:41:47;;;;;;;;;18.25;18.00;;;;;;;;5038493;28;45742;-78
2022/04/04 02:44:12;;;;;;;;;16.50;14.00;;;;;;;;5040725;28;45501;-79
2022/04/04 02:46:38;;;;;;;;;13.00;12.50;;;;;;;;5039554;28;45522;-72
2022/04/04 02:49:03;;;;;;;;;14.25;12.75;;;;;;;;5040240;28;45448;-78
2022/04/04 02:51:28;;;;;;;;;20.75;16.25;;;;;;;;5038016;28;46122;-79
2022/04/04 02:53:54;;;;;;;;;18.00;15.00;;;;;;;;5042137;28;45415;-69
2022/04/04 02:56:31;;;;;;;;;18.00;17.00;;;;;;;;5042801;28;45525;-70
2022/04/04 02:59:02;;;;;;;;;19.75;16.50;;;;;;;;5040459;28;45322;-78
2022/04/04 03:01:28;;;;;;;;;24.50;18.00;;;;;;;;5041485;28;46290;-80
2022/04/04 03:03:54;;;;;;;;;12.25;11.00;;;;;;;;5047435;28;45482;-79
2022/04/04 03:06:19;;;;;;;;;21.00;19.25;;;;;;;;5042333;28;45454;-79
2022/04/04 03:08:44;;;;;;;;;14.50;13.75;;;;;;;;5038156;28;45469;-80
2022/04/04 03:11:10;;;;;;;;;14.00;12.50;;;;;;;;5039934;28;45544;-78
2022/04/04 03:13:36;;;;;;;;;22.00;18.00;;;;;;;;5041533;28;45359;-69
2022/04/04 03:16:01;;;;;;;;;18.00;15.00;;;;;;;;5040583;28;45850;-70
2022/04/04 03:18:27;;;;;;;;;13.00;11.25;;;;;;;;5040033;28;45993;-77
2022/04/04 03:20:52;;;;;;;;;17.25;15.25;;;;;;;;5037215;28;45395;-78
2022/04/04 03:23:18;;;;;;;;;14.75;12.75;;;;;;;;5041842;28;45430;-75
2022/04/04 03:25:44;;;;;;;;;15.00;14.25;;;;;;;;5039624;28;45322;-79
2022/04/04 03:28:09;;;;;;;;;14.75;13.50;;;;;;;;5041944;28;45483;-78
2022/04/04 03:30:35;;;;;;;;;17.00;15.50;;;;;;;;5037643;28;45524;-69
2022/04/04 03:33:00;;;;;;;;;19.25;16.25;;;;;;;;5043342;28;45603;-69
2022/04/04 03:35:27;;;;;;;;;26.75;23.25;;;;;;;;5039605;28;45441;-78
2022/04/04 03:37:53;;;;;;;;;26.50;24.75;;;;;;;;5038427;28;45525;-78
2022/04/04 03:40:19;;;;;;;;;18.00;14.25;;;;;;;;5038131;28;45505;-69
2022/04/04 03:42:45;;;;;;;;;25.25;21.00;;;;;;;;5037634;28;45395;-79
2022/04/04 03:45:11;;;;;;;;;76.67;63.33;;;;;;;;5037151;28;45295;-75
2022/04/04 03:47:37;;;;;;;;;35.00;29.75;;;;;;;;5038849;28;47069;-79
2022/04/04 03:50:05;;;;;;;;;16.75;14.00;;;;;;;;5035156;28;46772;-69
2022/04/04 03:52:30;;;;;;;;;19.00;14.75;;;;;;;;5037025;28;45380;-79
2022/04/04 03:54:55;;;;;;;;;25.25;24.00;;;;;;;;5035959;28;45634;-79
2022/04/04 03:57:21;;;;;;;;;18.00;13.25;;;;;;;;5037410;28;45396;-69
2022/04/04 03:59:46;;;;;;;;;16.75;15.50;;;;;;;;5037414;28;46223;-69
2022/04/04 04:02:12;;;;;;;;;19.50;16.50;;;;;;;;5036750;28;45490;-69
2022/04/04 04:04:38;;;;;;;;;17.00;14.75;;;;;;;;5051399;28;45393;-77
2022/04/04 04:07:04;;;;;;;;;18.00;15.50;;;;;;;;5036531;28;45426;-69
2022/04/04 04:09:29;;;;;;;;;17.00;15.25;;;;;;;;5036382;28;46288;-75
2022/04/04 04:11:55;;;;;;;;;18.25;17.50;;;;;;;;5048115;28;45418;-78
2022/04/04 04:14:21;;;;;;;;;19.75;18.50;;;;;;;;5057041;28;45445;-69
2022/04/04 04:16:46;;;;;;;;;15.00;11.00;;;;;;;;5057229;28;45299;-78
2022/04/04 04:20:19;;;;;;;;;14.75;13.75;;;;;;;;5056896;28;45348;-70
2022/04/04 04:21:58;;;;;;;;;21.25;19.25;;;;;;;;5060355;28;45255;-69
2022/04/04 04:24:23;;;;;;;;;20.25;17.00;;;;;;;;5057941;28;45521;-69
2022/04/04 04:26:49;;;;;;;;;19.00;17.00;;;;;;;;5060302;28;45700;-78
2022/04/04 04:29:14;;;;;;;;;25.00;15.25;;;;;;;;5059886;28;46562;-79
2022/04/04 04:31:39;;;;;;;;;22.50;21.25;;;;;;;;5060599;28;45231;-70
2022/04/04 04:34:05;;;;;;;;;41.00;37.00;;;;;;;;5058945;28;45241;-69
2022/04/04 04:36:30;;;;;;;;;25.00;20.50;;;;;;;;5060480;28;45448;-69
2022/04/04 04:38:56;;;;;;;;;57.25;45.50;;;;;;;;5052704;28;45695;-79
2022/04/04 04:41:22;;;;;;;;;19.25;16.00;;;;;;;;5045851;28;45783;-77
2022/04/04 04:43:47;;;;;;;;;23.00;20.00;;;;;;;;5054717;28;45532;-78
2022/04/04 04:46:12;;;;;;;;;23.00;20.25;;;;;;;;5039853;28;45354;-70
2022/04/04 04:48:38;;;;;;;;;24.00;22.00;;;;;;;;5043577;28;45486;-69
2022/04/04 04:51:03;;;;;;;;;24.50;20.75;;;;;;;;5050910;28;45449;-69
2022/04/04 04:53:28;;;;;;;;;24.25;21.25;;;;;;;;5042007;28;46028;-78
2022/04/04 04:55:54;;;;;;;;;29.75;26.50;;;;;;;;5056775;28;45698;-70
2022/04/04 04:58:19;;;;;;;;;26.75;24.75;;;;;;;;5055989;28;46347;-79
2022/04/04 05:00:45;;;;;;;;;33.75;29.00;;;;;;;;5044282;28;45404;-69
2022/04/04 05:03:26;;;;;;;;;36.25;30.00;;;;;;;;5059378;28;45425;-69
2022/04/04 05:05:51;;;;;;;;;32.25;26.25;;;;;;;;5044509;28;45406;-69
2022/04/04 05:08:16;;;;;;;;;36.00;30.25;;;;;;;;5054341;28;45894;-69
2022/04/04 05:10:42;;;;;;;;;42.25;35.50;;;;;;;;5045537;28;45231;-69
2022/04/04 05:13:07;;;;;;;;;43.00;35.75;;;;;;;;5049004;28;45516;-69
2022/04/04 05:15:33;;;;;;;;;23.75;22.00;;;;;;;;5037870;28;45354;-70
2022/04/04 05:17:58;;;;;;;;;42.00;37.50;;;;;;;;5041000;28;45473;-78
2022/04/04 05:20:23;;;;;;;;;32.00;21.25;;;;;;;;5052759;28;45285;-69
2022/04/04 05:22:49;;;;;;;;;23.25;20.00;;;;;;;;5045412;28;45458;-69
2022/04/04 05:25:14;;;;;;;;;35.00;31.00;;;;;;;;5043323;28;45676;-79
2022/04/04 05:27:40;;;;;;;;;33.50;28.25;;;;;;;;5052608;28;45378;-69
2022/04/04 05:30:06;;;;;;;;;8.00;6.50;;;;;;;;5044768;28;45362;-69
2022/04/04 05:32:32;;;;;;;;;21.25;20.50;;;;;;;;5048336;28;45298;-69
2022/04/04 05:34:57;;;;;;;;;17.50;16.75;;;;;;;;5051540;28;45519;-69
2022/04/04 05:37:22;;;;;;;;;14.25;14.00;;;;;;;;5040554;28;46124;-78
2022/04/04 05:39:47;;;;;;;;;22.00;19.25;;;;;;;;5038823;28;45356;-78
2022/04/04 05:42:13;;;;;;;;;11.50;11.00;;;;;;;;5038512;28;45444;-69
2022/04/04 05:44:38;;;;;;;;;18.00;15.75;;;;;;;;5052413;28;46139;-69
2022/04/04 05:47:04;;;;;;;;;22.75;19.50;;;;;;;;5041173;28;46347;-69
2022/04/04 05:49:29;;;;;;;;;18.25;17.00;;;;;;;;5052716;28;45289;-69
2022/04/04 05:51:55;;;;;;;;;19.75;18.00;;;;;;;;5039196;28;45538;-69
2022/04/04 05:54:20;;;;;;;;;18.50;17.00;;;;;;;;5052023;28;45474;-79
2022/04/04 05:56:45;;;;;;;;;18.25;16.75;;;;;;;;5047437;28;46236;-69
2022/04/04 05:59:14;;;;;;;;;26.00;23.00;;;;;;;;5038001;28;45408;-70
2022/04/04 06:01:40;;;;;;;;;32.75;23.50;;;;;;;;5040137;28;45551;-69
2022/04/04 06:04:05;;;;;;;;;21.75;20.00;;;;;;;;5045275;28;45440;-69
2022/04/04 06:06:30;;;;;;;;;19.25;17.00;;;;;;;;5038261;28;46135;-69
2022/04/04 06:08:56;;;;;;;;;20.00;17.50;;;;;;;;5050703;28;45370;-71
2022/04/04 06:11:22;;;;;;;;;18.50;15.75;;;;;;;;5040510;28;45525;-71
2022/04/04 06:13:47;;;;;;;;;20.50;20.00;;;;;;;;5053357;28;45492;-78
2022/04/04 06:16:12;;;;;;;;;22.75;20.50;;;;;;;;5043313;28;46068;-68
2022/04/04 06:18:38;;;;;;;;;17.00;16.75;;;;;;;;5055142;28;45386;-69
2022/04/04 06:21:03;;;;;;;;;19.50;16.50;;;;;;;;5055845;28;45504;-68
2022/04/04 06:23:29;;;;;;;;;24.50;20.00;;;;;;;;5057921;28;45488;-68
2022/04/04 06:25:54;;;;;;;;;22.00;20.25;;;;;;;;5055807;28;46489;-68
2022/04/04 06:28:20;;;;;;;;;23.00;20.25;;;;;;;;5057830;28;45406;-80
2022/04/04 06:30:45;;;;;;;;;26.75;25.25;;;;;;;;5056281;28;45394;-68
2022/04/04 06:33:11;;;;;;;;;21.50;19.75;;;;;;;;5057661;28;45530;-68
2022/04/04 06:35:37;;;;;;;;;20.50;19.50;;;;;;;;5056961;28;45481;-68
2022/04/04 06:38:02;;;;;;;;;17.75;16.75;;;;;;;;5056977;28;45400;-79
2022/04/04 06:40:28;;;;;;;;;21.00;20.75;;;;;;;;5056024;28;45374;-75
2022/04/04 06:42:55;;;;;;;;;24.75;24.00;;;;;;;;5054543;28;45549;-73
2022/04/04 06:45:20;;;;;;;;;26.50;24.25;;;;;;;;5055978;28;45919;-78
2022/04/04 06:47:46;;;;;;;;;26.00;23.25;;;;;;;;5052243;28;45537;-76
2022/04/04 06:50:13;;;;;;;;;40.25;28.75;;;;;;;;5055052;28;45876;-76
2022/04/04 06:52:39;;;;;;;;;32.00;28.75;;;;;;;;5055112;28;45472;-77
2022/04/04 06:55:05;;;;;;;;;35.50;33.25;;;;;;;;5054241;28;46176;-79
2022/04/04 06:57:30;;;;;;;;;60.50;48.75;;;;;;;;5054365;28;45538;-70
2022/04/04 06:59:55;;;;;;;;;30.25;28.75;;;;;;;;5053431;28;45677;-78
2022/04/04 07:02:21;;;;;;;;;37.25;35.50;;;;;;;;5056425;28;45338;-79
2022/04/04 07:04:47;;;;;;;;;45.00;37.75;;;;;;;;5055968;28;46359;-69
2022/04/04 07:07:14;;;;;;;;;30.00;25.00;;;;;;;;5054741;28;45499;-72
2022/04/04 07:09:39;;;;;;;;;26.00;25.50;;;;;;;;5052852;28;45758;-76
2022/04/04 07:12:05;;;;;;;;;25.25;24.25;;;;;;;;5055586;28;45530;-72
2022/04/04 07:14:31;;;;;;;;;34.25;30.75;;;;;;;;5055910;28;45409;-78
2022/04/04 07:16:56;;;;;;;;;52.00;43.75;;;;;;;;5055734;28;45503;-79
2022/04/04 07:19:27;;;;;;;;;44.50;37.50;;;;;;;;5053846;28;45589;-71
2022/04/04 07:21:52;;;;;;;;;49.00;39.00;;;;;;;;5054537;28;45447;-71
2022/04/04 07:24:21;;;;;;;;;50.50;42.50;;;;;;;;5053585;28;46602;-77
2022/04/04 07:26:48;;;;;;;;;42.00;34.50;;;;;;;;5051452;28;45778;-71
2022/04/04 07:29:14;;;;;;;;;34.00;32.25;;;;;;;;5040301;28;45440;-70
2022/04/04 07:31:39;;;;;;;;;9.00;6.50;;;;;;;;5054013;28;45605;-73
2022/04/04 07:34:04;;;;;;;;;35.25;31.25;;;;;;;;5051139;28;45452;-78
2022/04/04 07:36:30;;;;;;;;;31.25;30.50;;;;;;;;5053461;28;45434;-79
2022/04/04 07:38:55;;;;;;;;;30.75;28.50;;;;;;;;5050495;28;45477;-76
2022/04/04 07:41:21;;;;;;;;;36.00;31.25;;;;;;;;5049721;28;45949;-73
2022/04/04 07:43:46;;;;;;;;;25.00;23.50;;;;;;;;5055471;28;46212;-73
2022/04/04 07:46:12;;;;;;;;;19.00;19.00;;;;;;;;5052035;28;45429;-74
2022/04/04 07:48:40;;;;;;;;;22.00;19.33;;;;;;;;5051192;28;45400;-75
2022/04/04 07:51:06;;;;;;;;;22.00;21.00;;;;;;;;5041213;28;45358;-75
2022/04/04 07:53:31;;;;;;;;;24.25;23.50;;;;;;;;5043016;28;46097;-73
2022/04/04 07:55:56;;;;;;;;;20.00;19.33;;;;;;;;5048847;28;45637;-73
2022/04/04 07:58:22;;;;;;;;;22.00;19.67;;;;;;;;5033572;28;45732;-72
2022/04/04 08:00:47;;;;;;;;;29.50;28.50;;;;;;;;5035995;28;45403;-73
2022/04/04 08:03:13;;;;;;;;;17.00;16.00;;;;;;;;5046178;28;46009;-73
2022/04/04 08:05:38;;;;;;;;;21.00;21.00;;;;;;;;5045566;28;45826;-72
2022/04/04 08:08:04;;;;;;;;;18.67;17.67;;;;;;;;5051762;28;45533;-72
2022/04/04 08:10:29;;;;;;;;;18.67;18.67;;;;;;;;5039406;28;45358;-73
2022/04/04 08:12:55;;;;;;;;;17.00;16.33;;;;;;;;5042835;28;46696;-73
2022/04/04 08:15:20;;;;;;;;;20.33;18.33;;;;;;;;5035406;28;45366;-72
2022/04/04 08:17:45;;;;;;;;;22.33;21.33;;;;;;;;5049207;28;45504;-74
2022/04/04 08:20:11;;;;;;;;;23.67;21.67;;;;;;;;5040783;28;45450;-73
2022/04/04 08:22:37;;;;;;;;;26.33;24.00;;;;;;;;5050963;28;46125;-74
2022/04/04 08:25:02;;;;;;;;;20.00;19.00;;;;;;;;5050027;28;45527;-73
2022/04/04 08:27:28;;;;;;;;;16.33;16.33;;;;;;;;5050939;28;45456;-73
2022/04/04 08:29:53;;;;;;;;;20.33;20.00;;;;;;;;5052243;28;45490;-73
2022/04/04 08:32:18;;;;;;;;;16.33;16.33;;;;;;;;5052850;28;46133;-73
2022/04/04 08:34:44;;;;;;;;;42.75;36.50;;;;;;;;5054091;28;45449;-73
2022/04/04 08:37:09;;;;;;;;;32.00;29.75;;;;;;;;5049638;28;45540;-73
2022/04/04 08:39:34;;;;;;;;;21.67;21.33;;;;;;;;5050468;28;45624;-73
2022/04/04 08:42:02;;;;;;;;;17.33;16.33;;;;;;;;5045936;28;46526;-74
2022/04/04 08:44:28;;;;;;;;;17.00;16.00;;;;;;;;5046568;28;45572;-73
2022/04/04 08:46:53;;;;;;;;;15.33;15.00;;;;;;;;5038243;28;45392;-74
2022/04/04 08:49:19;;;;;;;;;14.67;13.67;;;;;;;;5039612;28;45353;-74
2022/04/04 08:51:47;;;;;;;;;13.67;13.67;;;;;;;;5046432;28;46531;-74
2022/04/04 08:54:12;;;;;;;;;18.33;17.33;;;;;;;;5044660;28;45830;-73
2022/04/04 08:56:38;;;;;;;;;16.00;15.00;;;;;;;;5041872;28;45711;-78
2022/04/04 08:59:03;;;;;;;;;18.00;16.00;;;;;;;;5051039;28;46199;-73
2022/04/04 09:01:29;;;;;;;;;13.67;13.33;;;;;;;;5054216;28;45531;-73
2022/04/04 09:04:03;;;;;;;;;14.00;14.00;;;;;;;;5052894;28;45603;-72
2022/04/04 09:06:28;;;;;;;;;16.33;16.00;;;;;;;;5051906;28;45801;-73
2022/04/04 09:08:55;;;;;;;;;18.33;16.67;;;;;;;;5053315;28;45660;-72
2022/04/04 09:11:21;;;;;;;;;17.33;16.67;;;;;;;;5056392;28;45668;-74
2022/04/04 09:14:01;;;;;;;;;17.67;17.67;;;;;;;;5061541;28;45509;-73
2022/04/04 09:16:26;;;;;;;;;1.33;0.67;;;;;;;;5052229;28;45483;-74
2022/04/04 09:18:51;;;;;;;;;16.00;16.00;;;;;;;;5055638;28;45604;-74
2022/04/04 09:21:20;;;;;;;;;17.33;16.67;;;;;;;;5057319;28;46099;-74
2022/04/04 09:23:45;;;;;;;;;14.67;13.67;;;;;;;;5056100;28;46373;-74
2022/04/04 09:26:28;;;;;;;;;14.00;14.00;;;;;;;;5060135;27;45441;-74
2022/04/04 09:28:54;;;;;;;;;12.00;11.00;;;;;;;;5055600;28;46565;-75
2022/04/04 09:31:20;;;;;;;;;20.33;19.33;;;;;;;;5055841;28;45748;-76
2022/04/04 09:33:45;;;;;;;;;20.00;18.00;;;;;;;;5054706;28;45516;-73
2022/04/04 09:36:11;;;;;;;;;17.33;15.33;;;;;;;;5056357;28;45486;-74
2022/04/04 09:38:37;;;;;;;;;17.00;16.00;;;;;;;;5056828;28;45337;-73
2022/04/04 09:41:06;;;;;;;;;13.33;13.33;;;;;;;;5054487;28;48058;-73
2022/04/04 09:43:50;;;;;;;;;16.00;14.00;;;;;;;;5056267;28;45563;-74
2022/04/04 09:46:16;;;;;;;;;15.33;13.67;;;;;;;;5059001;28;45504;-73
2022/04/04 09:49:00;;;;;;;;;13.00;13.00;;;;;;;;5056731;27;45621;-71
2022/04/04 09:51:36;;;;;;;;;13.67;13.33;;;;;;;;5053185;28;47921;-72
2022/04/04 09:54:03;;;;;;;;;13.67;12.33;;;;;;;;5052641;28;45540;-73
2022/04/04 09:56:28;;;;;;;;;12.00;12.00;;;;;;;;5049255;28;45592;-74
2022/04/04 09:58:54;;;;;;;;;14.33;12.33;;;;;;;;5055508;28;45501;-74
2022/04/04 10:01:20;;;;;;;;;9.00;9.00;;;;;;;;5053198;28;46934;-74
2022/04/04 10:03:46;;;;;;;;;14.67;11.67;;;;;;;;5054905;28;45508;-75
2022/04/04 10:06:13;;;;;;;;;13.67;13.00;;;;;;;;5054352;28;45482;-73
2022/04/04 10:08:38;;;;;;;;;12.00;11.33;;;;;;;;5049643;28;45544;-74
2022/04/04 10:11:07;;;;;;;;;11.33;11.33;;;;;;;;5037135;28;46204;-73
2022/04/04 10:13:33;;;;;;;;;13.33;13.33;;;;;;;;5042767;28;45474;-72
2022/04/04 10:15:59;;;;;;;;;13.33;13.00;;;;;;;;5046090;28;45474;-72
2022/04/04 10:18:24;;;;;;;;;14.00;12.67;;;;;;;;5041724;28;45774;-73
2022/04/04 10:20:53;;;;;;;;;13.33;12.33;;;;;;;;5055230;28;47270;-73
2022/04/04 10:23:19;;;;;;;;;13.33;12.00;;;;;;;;5055793;28;45595;-72
2022/04/04 10:25:45;;;;;;;;;13.67;12.33;;;;;;;;5051510;28;45501;-72
2022/04/04 10:28:24;;;;;;;;;14.25;13.75;;;;;;;;5031071;27;45636;-73
2022/04/04 10:30:49;;;;;;;;;13.25;12.50;;;;;;;;5063607;28;45553;-73
2022/04/04 10:33:19;;;;;;;;;13.50;12.75;;;;;;;;5065838;28;45874;-73
2022/04/04 10:35:58;;;;;;;;;12.00;11.33;;;;;;;;5062248;28;45489;-72
2022/04/04 10:38:28;;;;;;;;;12.00;11.67;;;;;;;;5068066;28;45653;-73
2022/04/04 10:40:55;;;;;;;;;11.33;10.67;;;;;;;;5057234;28;45441;-74
2022/04/04 10:43:21;;;;;;;;;15.67;14.67;;;;;;;;5056304;28;45464;-73
2022/04/04 10:45:50;;;;;;;;;16.50;14.75;;;;;;;;5040970;28;45365;-73
2022/04/04 10:48:16;;;;;;;;;12.00;10.67;;;;;;;;5051673;28;45415;-70
2022/04/04 10:50:42;;;;;;;;;12.67;12.33;;;;;;;;5036502;28;46188;-71
2022/04/04 10:53:08;;;;;;;;;12.00;11.00;;;;;;;;5055583;27;45649;-73
2022/04/04 10:55:36;;;;;;;;;11.67;11.33;;;;;;;;5066552;28;46987;-74
2022/04/04 10:58:14;;;;;;;;;12.33;11.33;;;;;;;;5064359;28;45373;-74
2022/04/04 11:00:52;;;;;;;;;12.33;11.00;;;;;;;;5044885;28;47300;-73
2022/04/04 11:03:25;;;;;;;;;10.33;10.33;;;;;;;;5039816;28;45900;-74
2022/04/04 11:08:43;;;;;;;;;12.33;10.00;;;;;;;;5047833;28;45626;-74
2022/04/04 11:11:14;;;;;;;;;13.33;11.00;;;;;;;;5040742;28;46055;-74
2022/04/04 11:13:49;;;;;;;;;11.00;9.67;;;;;;;;5036681;28;45303;-73
2022/04/04 11:16:17;;;;;;;;;12.00;10.00;;;;;;;;5051097;28;45449;-73
2022/04/04 11:18:52;;;;;;;;;13.33;13.00;;;;;;;;5037131;28;45378;-73
2022/04/04 11:21:46;;;;;;;;;15.33;14.00;;;;;;;;5035097;28;45698;-73
2022/04/04 11:24:11;;;;;;;;;14.00;12.25;;;;;;;;5032759;28;45530;-73
2022/04/04 11:26:37;;;;;;;;;12.25;11.50;;;;;;;;5040624;28;45527;-73
2022/04/04 11:29:03;;;;;;;;;17.00;14.25;;;;;;;;5046844;28;45563;-73
2022/04/04 11:31:28;;;;;;;;;11.00;10.75;;;;;;;;5036826;28;45577;-73
2022/04/04 11:33:56;;;;;;;;;12.25;11.50;;;;;;;;5037112;28;45556;-74
2022/04/04 11:36:27;;;;;;;;;9.25;8.25;;;;;;;;5051166;28;45473;-74
2022/04/04 11:38:56;;;;;;;;;11.75;11.00;;;;;;;;5045318;28;45385;-74
2022/04/04 11:41:24;;;;;;;;;12.00;9.50;;;;;;;;5054320;28;45600;-73
2022/04/04 11:43:53;;;;;;;;;11.75;10.75;;;;;;;;5037299;28;45456;-73
2022/04/04 11:46:19;;;;;;;;;11.00;10.00;;;;;;;;5036403;28;45488;-73
2022/04/04 11:48:49;;;;;;;;;14.00;12.50;;;;;;;;5035296;28;45626;-73
2022/04/04 11:51:14;;;;;;;;;12.25;12.25;;;;;;;;5034988;28;45515;-73
2022/04/04 11:53:39;;;;;;;;;14.75;14.25;;;;;;;;5051039;28;45516;-74
2022/04/04 11:56:10;;;;;;;;;13.00;12.00;;;;;;;;5036671;28;45361;-73
2022/04/04 11:58:45;;;;;;;;;10.75;10.00;;;;;;;;5046856;28;45421;-73
2022/04/04 12:01:11;;;;;;;;;12.50;11.50;;;;;;;;5056386;28;45535;-74
2022/04/04 12:03:43;;;;;;;;;17.25;13.75;;;;;;;;5035952;28;45618;-73
2022/04/04 12:06:08;;;;;;;;;11.25;10.50;;;;;;;;5045060;28;45644;-73
2022/04/04 12:08:42;;;;;;;;;11.25;10.50;;;;;;;;5041640;28;45436;-73
2022/04/04 12:11:09;;;;;;;;;15.50;15.00;;;;;;;;5037160;28;46400;-73
2022/04/04 12:13:46;;;;;;;;;16.50;14.75;;;;;;;;5046719;28;45459;-73
2022/04/04 12:16:15;;;;;;;;;11.00;11.00;;;;;;;;5034585;28;45483;-73
2022/04/04 12:18:42;;;;;;;;;13.50;13.00;;;;;;;;5049513;28;45278;-73
2022/04/04 12:21:08;;;;;;;;;13.25;13.00;;;;;;;;5053796;28;45797;-74
2022/04/04 12:26:22;;;;;;;;;11.50;11.00;;;;;;;;5051429;28;45916;-74
2022/04/04 12:28:48;;;;;;;;;15.00;13.50;;;;;;;;5051973;28;45406;-74
2022/04/04 12:31:18;;;;;;;;;11.50;11.25;;;;;;;;5042950;28;45607;-74
2022/04/04 12:33:44;;;;;;;;;14.25;13.00;;;;;;;;5042490;28;45562;-74
2022/04/04 12:36:10;;;;;;;;;13.75;11.75;;;;;;;;5051009;28;45537;-73
2022/04/04 12:38:35;;;;;;;;;12.25;12.25;;;;;;;;5049382;28;45432;-73
2022/04/04 12:41:04;;;;;;;;;14.00;13.25;;;;;;;;5034812;28;47016;-73
2022/04/04 12:43:30;;;;;;;;;16.00;14.00;;;;;;;;5039010;28;45444;-73
2022/04/04 12:45:55;;;;;;;;;13.00;13.00;;;;;;;;5038780;28;45541;-73
2022/04/04 12:48:21;;;;;;;;;15.00;14.50;;;;;;;;5050162;28;45486;-73
2022/04/04 12:50:47;;;;;;;;;16.25;14.50;;;;;;;;5054123;28;46287;-73
2022/04/04 12:53:13;;;;;;;;;11.25;10.50;;;;;;;;5038237;28;45481;-74
2022/04/04 12:55:40;;;;;;;;;16.50;16.50;;;;;;;;5046516;28;45488;-73
2022/04/04 12:58:18;;;;;;;;;17.00;15.75;;;;;;;;5054223;28;45517;-73
2022/04/04 13:00:44;;;;;;;;;16.25;14.75;;;;;;;;5054383;28;45590;-73
2022/04/04 13:03:20;;;;;;;;;16.75;14.75;;;;;;;;5038801;28;45479;-73
2022/04/04 13:05:49;;;;;;;;;15.50;14.75;;;;;;;;5049358;28;45549;-73
2022/04/04 13:08:19;;;;;;;;;14.75;14.50;;;;;;;;5043392;28;45430;-73
2022/04/04 13:10:59;;;;;;;;;14.25;12.25;;;;;;;;5053953;28;46227;-73
2022/04/04 13:13:25;;;;;;;;;14.25;14.00;;;;;;;;5047798;28;45736;-73
2022/04/04 13:15:50;;;;;;;;;15.25;13.75;;;;;;;;5045373;28;45508;-73
2022/04/04 13:18:16;;;;;;;;;15.25;14.50;;;;;;;;5056755;28;45282;-74
2022/04/04 13:20:42;;;;;;;;;13.00;13.00;;;;;;;;5057036;28;45547;-73
2022/04/04 13:23:08;;;;;;;;;14.25;13.75;;;;;;;;5057165;28;45404;-73
2022/04/04 13:25:33;;;;;;;;;13.00;12.00;;;;;;;;5045633;28;45437;-73
2022/04/04 13:27:59;;;;;;;;;13.00;12.75;;;;;;;;5038513;28;45306;-73
2022/04/04 13:30:24;;;;;;;;;17.75;16.25;;;;;;;;5037110;28;46546;-74
2022/04/04 13:32:49;;;;;;;;;14.00;12.75;;;;;;;;5038592;28;45526;-73
2022/04/04 13:35:15;;;;;;;;;16.00;13.75;;;;;;;;5052297;28;45446;-74
2022/04/04 13:37:40;;;;;;;;;14.25;12.75;;;;;;;;5044796;28;45392;-73
2022/04/04 13:40:07;;;;;;;;;13.00;13.00;;;;;;;;5046156;28;46097;-73
2022/04/04 13:42:32;;;;;;;;;10.00;10.00;;;;;;;;5051155;28;45475;-73
2022/04/04 13:44:58;;;;;;;;;11.75;11.75;;;;;;;;5057020;28;45542;-72
2022/04/04 13:47:23;;;;;;;;;13.50;11.50;;;;;;;;5041461;28;45549;-73
2022/04/04 13:49:49;;;;;;;;;11.75;11.00;;;;;;;;5051844;28;46132;-73
2022/04/04 13:52:14;;;;;;;;;12.50;11.75;;;;;;;;5036419;28;45583;-73
2022/04/04 13:54:40;;;;;;;;;12.00;11.75;;;;;;;;5045212;28;45643;-72
2022/04/04 13:57:05;;;;;;;;;15.75;14.75;;;;;;;;5037931;28;45390;-73
2022/04/04 13:59:30;;;;;;;;;18.75;17.75;;;;;;;;5051626;28;46481;-73
2022/04/04 14:01:56;;;;;;;;;15.50;13.25;;;;;;;;5037601;28;45500;-73
2022/04/04 14:04:21;;;;;;;;;20.00;19.00;;;;;;;;5046083;28;45488;-73
2022/04/04 14:06:47;;;;;;;;;15.50;13.75;;;;;;;;5043911;28;45425;-74
2022/04/04 14:09:12;;;;;;;;;20.00;18.50;;;;;;;;5038734;28;45515;-74
2022/04/04 14:11:37;;;;;;;;;11.00;10.50;;;;;;;;5052172;28;45486;-74
2022/04/04 14:14:04;;;;;;;;;12.00;12.00;;;;;;;;5046313;28;45410;-74
2022/04/04 14:16:30;;;;;;;;;20.25;18.00;;;;;;;;5057436;28;45373;-73
2022/04/04 14:18:56;;;;;;;;;17.75;14.50;;;;;;;;5037924;28;45477;-72
2022/04/04 14:21:22;;;;;;;;;18.00;16.75;;;;;;;;5042823;28;45326;-73
2022/04/04 14:23:47;;;;;;;;;19.25;19.25;;;;;;;;5051960;28;45512;-74